Weather reports worldwide

Advertisment
San Pancrazio, Italy (16130): temperature & dewpoint: 11.07.2019 01:00:00 - 17.07.2019 01:00:00 (CEST)San Pancrazio, Italy (16130): wind speed: 11.07.2019 01:00:00 - 17.07.2019 01:00:00 (CEST)San Pancrazio, Italy (16130): wind direction: 11.07.2019 01:00:00 - 17.07.2019 01:00:00 (CEST)San Pancrazio, Italy (16130): precipitation: 11.07.2019 01:00:00 - 17.07.2019 01:00:00 (CEST)
Date & Time tt [°C] td [°C] ff [km/h] ff [kn] dd rr [mm]
17.07.2019 01:00:00 - - - - - -
17.07.2019 00:00:00 - - - - - -
16.07.2019 23:00:00 18,9 13,1 8 4 SSW 0,0
16.07.2019 22:00:00 20,1 12,8 6 4 S 0,0
16.07.2019 21:00:00 23,2 11,6 3 2 SSE 0,0
16.07.2019 20:00:00 26,9 8,8 4 2 S 0,0
16.07.2019 19:00:00 27,7 9,0 6 3 S 0,0
16.07.2019 18:00:00 28,9 9,1 7 4 S 0,0
16.07.2019 17:00:00 28,8 9,0 7 4 W 0,0
16.07.2019 16:00:00 28,1 8,9 3 1 W 0,0
16.07.2019 15:00:00 27,9 9,2 6 3 SW 0,0
16.07.2019 14:00:00 27,2 8,6 7 4 E 0,0
16.07.2019 13:00:00 26,1 11,8 3 2 ENE 0,0
16.07.2019 12:00:00 24,6 11,2 4 2 SSW 0,0
16.07.2019 11:00:00 23,6 14,0 7 4 W 0,0
16.07.2019 10:00:00 22,3 14,4 9 5 NW 0,0
16.07.2019 09:00:00 20,9 14,3 9 5 NW 0,0
16.07.2019 08:00:00 18,8 14,7 4 2 W 0,0
16.07.2019 07:00:00 16,6 14,1 3 1 SW 0,0
16.07.2019 06:00:00 15,1 13,0 4 2 W 0,0
16.07.2019 05:00:00 15,5 13,2 5 3 WSW 0,0
16.07.2019 04:00:00 16,0 13,5 8 4 WSW 0,0
16.07.2019 03:00:00 16,2 13,7 7 4 WSW 0,0
16.07.2019 02:00:00 16,5 14,1 8 4 WSW 0,0
16.07.2019 01:00:00 16,6 14,4 6 3 WSW 0,0
16.07.2019 00:00:00 16,3 14,3 7 4 WSW 0,0
15.07.2019 23:00:00 16,7 14,5 - - - 0,0
15.07.2019 22:00:00 17,5 14,9 4 2 W 0,0
15.07.2019 21:00:00 19,3 14,3 1 0 NNE 0,0
15.07.2019 20:00:00 19,8 14,6 6 3 NNE 0,0
15.07.2019 19:00:00 19,6 15,3 6 3 NE 0,0
15.07.2019 18:00:00 19,9 15,3 5 3 ESE 0,0
15.07.2019 17:00:00 18,6 15,7 5 3 NNE 0,4
15.07.2019 16:00:00 18,2 15,6 2 1 NNW 0,0
15.07.2019 15:00:00 17,2 15,0 5 3 S 0,4
15.07.2019 14:00:00 16,2 14,7 13 7 ESE 2,2
15.07.2019 13:00:00 16,7 15,4 14 8 ENE 8,4
15.07.2019 12:00:00 16,4 14,9 10 5 NE 7,6
15.07.2019 11:00:00 17,5 14,8 15 8 ENE 0,2
15.07.2019 10:00:00 17,8 14,9 14 7 NE 0,0
15.07.2019 09:00:00 18,1 16,1 10 5 NE 0,4
15.07.2019 08:00:00 17,8 16,1 4 2 W 1,6
15.07.2019 07:00:00 17,7 16,0 1 1 ENE 0,4
15.07.2019 06:00:00 17,5 15,8 3 2 ESE 1,0
15.07.2019 05:00:00 18,1 16,1 4 2 SSE 0,8
15.07.2019 04:00:00 18,5 16,3 1 0 SW 1,0
15.07.2019 03:00:00 18,9 16,1 5 3 SW 0,4
15.07.2019 02:00:00 19,6 15,7 4 2 WSW 0,0
15.07.2019 01:00:00 20,5 15,3 6 3 SSW 0,0
15.07.2019 00:00:00 21,4 15,2 9 5 WSW 0,0
14.07.2019 23:00:00 21,5 13,9 8 4 SSW 0,0
14.07.2019 22:00:00 21,6 13,2 4 2 SSE 0,0
14.07.2019 21:00:00 22,5 13,0 6 3 SE 0,0
14.07.2019 20:00:00 24,6 13,2 9 5 SSW 0,0
14.07.2019 19:00:00 25,8 14,3 9 5 SSW 0,0
14.07.2019 18:00:00 25,0 14,2 17 9 SW 0,0
14.07.2019 17:00:00 25,7 13,5 14 7 WSW 0,0
14.07.2019 16:00:00 28,3 8,6 9 5 SE 0,0
14.07.2019 15:00:00 28,4 9,6 10 5 E 0,0
14.07.2019 14:00:00 28,4 9,6 13 7 ENE 0,0
14.07.2019 13:00:00 27,6 12,4 9 5 E 0,0
14.07.2019 12:00:00 26,4 13,2 11 6 ENE 0,0
14.07.2019 11:00:00 24,4 13,0 8 5 ENE 0,0
14.07.2019 10:00:00 23,3 13,8 6 3 NNE 0,0
14.07.2019 09:00:00 22,4 13,7 3 2 SE 0,0
14.07.2019 08:00:00 21,1 13,0 2 1 W 0,0
14.07.2019 07:00:00 16,8 12,1 - - - -
14.07.2019 06:00:00 14,3 11,1 0 0 N 0,0
14.07.2019 05:00:00 15,0 11,2 2 1 SSW 0,0
14.07.2019 04:00:00 17,0 11,3 3 2 SE 0,0
14.07.2019 03:00:00 17,0 11,3 6 4 E 0,0
14.07.2019 02:00:00 18,3 11,1 7 4 NE 0,0
14.07.2019 01:00:00 20,0 12,0 3 1 ESE 0,0
14.07.2019 00:00:00 21,1 10,9 14 7 SSE 0,0
13.07.2019 23:00:00 21,8 11,2 18 10 ESE 0,0
13.07.2019 22:00:00 25,5 12,4 5 3 E 0,0
13.07.2019 21:00:00 26,6 12,3 6 3 E 0,0
13.07.2019 20:00:00 28,4 12,3 6 4 SE 0,0
13.07.2019 19:00:00 29,9 10,4 4 2 N 0,0
13.07.2019 18:00:00 30,0 11,0 6 3 WNW 0,0
13.07.2019 17:00:00 28,8 13,5 7 4 ESE 0,0
13.07.2019 16:00:00 29,1 13,3 5 3 ESE 0,0
13.07.2019 15:00:00 28,6 14,8 10 5 NE 0,0
13.07.2019 14:00:00 27,9 15,9 6 4 E 0,0
13.07.2019 13:00:00 27,4 16,1 6 3 E 0,0
13.07.2019 12:00:00 26,4 16,3 5 3 E 0,0
13.07.2019 11:00:00 25,1 16,3 7 4 E 0,0
13.07.2019 10:00:00 24,2 15,9 7 4 ESE 0,0
13.07.2019 09:00:00 23,1 15,9 5 3 E 0,0
13.07.2019 08:00:00 20,3 15,9 4 2 WSW 0,0
13.07.2019 07:00:00 18,8 15,9 4 2 WSW 0,0
13.07.2019 06:00:00 17,7 15,0 3 1 NW 0,0
13.07.2019 05:00:00 17,6 14,5 0 0 SSE 0,0
13.07.2019 04:00:00 19,2 15,1 3 2 ESE 0,0
13.07.2019 03:00:00 20,2 15,2 11 6 ESE 0,0
13.07.2019 02:00:00 20,8 15,6 10 6 E 0,0
13.07.2019 01:00:00 21,3 16,0 4 2 ESE -
13.07.2019 00:00:00 22,3 15,9 4 2 SE 0,0
12.07.2019 23:00:00 23,2 15,5 9 5 E 0,0
12.07.2019 22:00:00 24,0 14,1 11 6 E 0,0
12.07.2019 21:00:00 28,0 13,5 13 7 E 0,0
12.07.2019 20:00:00 29,6 12,1 9 5 E 0,0
12.07.2019 19:00:00 30,8 10,7 3 2 WSW 0,0
12.07.2019 18:00:00 31,3 10,6 6 3 W 0,0
12.07.2019 17:00:00 31,0 11,4 8 4 W 0,0
12.07.2019 16:00:00 30,2 11,7 6 3 S 0,0
12.07.2019 15:00:00 29,5 12,0 5 3 NNE -
12.07.2019 14:00:00 28,9 13,6 8 4 NNE 0,0
12.07.2019 13:00:00 28,2 13,3 4 2 N 0,0
12.07.2019 12:00:00 26,4 15,1 6 3 NW 0,0
12.07.2019 11:00:00 24,9 15,5 7 4 N 0,0
12.07.2019 10:00:00 22,8 15,1 6 3 NE 0,0
12.07.2019 09:00:00 21,1 15,0 3 1 NW 0,0
12.07.2019 08:00:00 21,2 14,6 3 2 W 0,0
12.07.2019 07:00:00 19,2 14,7 0 0 SSE 0,0
12.07.2019 06:00:00 18,5 13,8 5 3 E 0,0
12.07.2019 05:00:00 19,7 13,6 6 4 E 0,0
12.07.2019 04:00:00 20,5 13,7 6 4 ESE 0,0
12.07.2019 03:00:00 20,2 14,8 6 4 NE 0,0
12.07.2019 02:00:00 19,7 14,1 4 2 NE 0,0
12.07.2019 01:00:00 20,7 13,4 3 2 ENE 0,0
12.07.2019 00:00:00 21,4 12,5 6 4 SE 0,0
11.07.2019 23:00:00 22,8 13,0 9 5 E 0,0
11.07.2019 22:00:00 24,8 13,0 11 6 E 0,0
11.07.2019 21:00:00 25,6 12,1 4 2 E 0,0
11.07.2019 20:00:00 26,3 12,7 6 3 ESE 0,0
11.07.2019 19:00:00 26,7 12,7 4 2 SE 0,0
11.07.2019 18:00:00 27,5 11,9 6 4 SSE 0,0
11.07.2019 17:00:00 27,5 12,3 7 4 S 0,0
11.07.2019 16:00:00 26,7 11,6 6 4 SSE 0,0
11.07.2019 15:00:00 26,9 11,4 6 4 ESE 0,0
11.07.2019 14:00:00 26,3 11,2 10 5 ESE 0,0
11.07.2019 13:00:00 26,2 10,8 12 7 E 0,0
11.07.2019 12:00:00 25,8 10,8 9 5 ESE 0,0
11.07.2019 11:00:00 24,7 12,3 13 7 ESE 0,0
11.07.2019 10:00:00 23,2 13,1 9 5 E 0,0
11.07.2019 09:00:00 21,3 14,0 7 4 E 0,0
11.07.2019 08:00:00 19,3 15,2 6 3 NE 0,0
11.07.2019 07:00:00 16,9 15,1 0 0 SW 0,0
11.07.2019 06:00:00 15,3 13,7 1 0 SE 0,0
11.07.2019 05:00:00 15,5 13,7 3 2 SE 0,0
11.07.2019 04:00:00 16,2 14,2 3 1 SSE 0,0
11.07.2019 03:00:00 16,1 13,9 4 2 SE 0,0
11.07.2019 02:00:00 16,6 14,1 2 1 S 0,0
11.07.2019 01:00:00 17,7 13,8 0 0 S 0,0

tt = temperature
td = dewpoint
ff = wind speed
dd = wind direction
rr = precipitation

Next stations